sensor_id;sensor_type;location;lat;lon;timestamp;temperature;humidity
42615;DHT22;28754;47.700;7.924;2023-09-19T00:00:24;16.00;99.90
42615;DHT22;28754;47.700;7.924;2023-09-19T00:03:13;16.10;99.90
42615;DHT22;28754;47.700;7.924;2023-09-19T00:06:00;16.10;99.90
42615;DHT22;28754;47.700;7.924;2023-09-19T00:08:47;16.00;99.90
42615;DHT22;28754;47.700;7.924;2023-09-19T00:11:34;15.90;99.90
42615;DHT22;28754;47.700;7.924;2023-09-19T00:14:24;16.00;99.90
42615;DHT22;28754;47.700;7.924;2023-09-19T00:17:11;15.90;99.90
42615;DHT22;28754;47.700;7.924;2023-09-19T00:19:58;15.90;99.90
42615;DHT22;28754;47.700;7.924;2023-09-19T00:22:44;16.00;99.90
42615;DHT22;28754;47.700;7.924;2023-09-19T00:25:31;15.80;99.90
42615;DHT22;28754;47.700;7.924;2023-09-19T00:28:21;15.80;99.90
42615;DHT22;28754;47.700;7.924;2023-09-19T00:31:08;15.90;99.90
42615;DHT22;28754;47.700;7.924;2023-09-19T00:33:55;15.80;99.90
42615;DHT22;28754;47.700;7.924;2023-09-19T00:36:50;15.80;99.90
42615;DHT22;28754;47.700;7.924;2023-09-19T00:39:39;15.70;99.90
42615;DHT22;28754;47.700;7.924;2023-09-19T00:42:27;15.60;99.90
42615;DHT22;28754;47.700;7.924;2023-09-19T00:45:16;15.60;99.90
42615;DHT22;28754;47.700;7.924;2023-09-19T00:48:04;15.60;99.90
42615;DHT22;28754;47.700;7.924;2023-09-19T00:50:58;15.60;99.90
42615;DHT22;28754;47.700;7.924;2023-09-19T00:53:48;15.60;99.90
42615;DHT22;28754;47.700;7.924;2023-09-19T00:56:41;15.60;99.90
42615;DHT22;28754;47.700;7.924;2023-09-19T00:59:32;15.60;99.90
42615;DHT22;28754;47.700;7.924;2023-09-19T01:02:23;15.50;99.90
42615;DHT22;28754;47.700;7.924;2023-09-19T01:05:43;15.50;99.90
42615;DHT22;28754;47.700;7.924;2023-09-19T01:08:38;15.60;99.90
42615;DHT22;28754;47.700;7.924;2023-09-19T01:11:40;15.80;99.90
42615;DHT22;28754;47.700;7.924;2023-09-19T01:15:04;15.60;99.90
42615;DHT22;28754;47.700;7.924;2023-09-19T01:21:55;15.70;99.90
42615;DHT22;28754;47.700;7.924;2023-09-19T01:28:52;15.60;99.90
42615;DHT22;28754;47.700;7.924;2023-09-19T01:31:47;15.60;99.90
42615;DHT22;28754;47.700;7.924;2023-09-19T01:37:36;15.80;99.90
42615;DHT22;28754;47.700;7.924;2023-09-19T01:40:24;15.60;99.90
42615;DHT22;28754;47.700;7.924;2023-09-19T01:43:33;15.60;99.90
42615;DHT22;28754;47.700;7.924;2023-09-19T01:46:33;15.50;99.90
42615;DHT22;28754;47.700;7.924;2023-09-19T01:52:54;15.60;99.90
42615;DHT22;28754;47.700;7.924;2023-09-19T01:55:54;15.60;99.90
42615;DHT22;28754;47.700;7.924;2023-09-19T01:58:48;15.70;99.90
42615;DHT22;28754;47.700;7.924;2023-09-19T02:01:42;15.60;99.90
42615;DHT22;28754;47.700;7.924;2023-09-19T02:04:38;15.70;99.90
42615;DHT22;28754;47.700;7.924;2023-09-19T02:07:31;15.50;99.90
42615;DHT22;28754;47.700;7.924;2023-09-19T02:10:24;15.70;99.90
42615;DHT22;28754;47.700;7.924;2023-09-19T02:13:23;15.70;99.90
42615;DHT22;28754;47.700;7.924;2023-09-19T02:16:16;15.70;99.90
42615;DHT22;28754;47.700;7.924;2023-09-19T02:19:15;15.70;99.90
42615;DHT22;28754;47.700;7.924;2023-09-19T02:22:37;15.60;99.90
42615;DHT22;28754;47.700;7.924;2023-09-19T02:25:25;15.60;99.90
42615;DHT22;28754;47.700;7.924;2023-09-19T02:28:18;15.50;99.90
42615;DHT22;28754;47.700;7.924;2023-09-19T02:31:05;15.40;99.90
42615;DHT22;28754;47.700;7.924;2023-09-19T02:34:00;15.40;99.90
42615;DHT22;28754;47.700;7.924;2023-09-19T02:36:48;15.40;99.90
42615;DHT22;28754;47.700;7.924;2023-09-19T02:45:04;15.50;99.90
42615;DHT22;28754;47.700;7.924;2023-09-19T02:47:52;15.60;99.90
42615;DHT22;28754;47.700;7.924;2023-09-19T02:50:39;15.30;99.90
42615;DHT22;28754;47.700;7.924;2023-09-19T02:53:26;15.20;99.90
42615;DHT22;28754;47.700;7.924;2023-09-19T02:56:14;14.90;99.90
42615;DHT22;28754;47.700;7.924;2023-09-19T02:59:02;15.10;99.90
42615;DHT22;28754;47.700;7.924;2023-09-19T03:01:49;14.90;99.90
42615;DHT22;28754;47.700;7.924;2023-09-19T03:04:36;14.90;99.90
42615;DHT22;28754;47.700;7.924;2023-09-19T03:07:23;14.80;99.90
42615;DHT22;28754;47.700;7.924;2023-09-19T03:10:11;14.70;99.90
42615;DHT22;28754;47.700;7.924;2023-09-19T03:12:58;14.70;99.90
42615;DHT22;28754;47.700;7.924;2023-09-19T03:15:50;14.70;99.90
42615;DHT22;28754;47.700;7.924;2023-09-19T03:18:45;14.90;99.90
42615;DHT22;28754;47.700;7.924;2023-09-19T03:21:34;14.80;99.90
42615;DHT22;28754;47.700;7.924;2023-09-19T03:24:22;14.90;99.90
42615;DHT22;28754;47.700;7.924;2023-09-19T03:27:10;14.90;99.90
42615;DHT22;28754;47.700;7.924;2023-09-19T03:29:57;14.90;99.90
42615;DHT22;28754;47.700;7.924;2023-09-19T03:32:48;14.80;99.90
42615;DHT22;28754;47.700;7.924;2023-09-19T03:35:38;14.70;99.90
42615;DHT22;28754;47.700;7.924;2023-09-19T03:38:27;14.70;99.90
42615;DHT22;28754;47.700;7.924;2023-09-19T03:41:15;14.60;99.90
42615;DHT22;28754;47.700;7.924;2023-09-19T03:44:04;14.70;99.90
42615;DHT22;28754;47.700;7.924;2023-09-19T03:46:52;14.70;99.90
42615;DHT22;28754;47.700;7.924;2023-09-19T03:49:39;14.60;99.90
42615;DHT22;28754;47.700;7.924;2023-09-19T03:52:25;14.60;99.90
42615;DHT22;28754;47.700;7.924;2023-09-19T03:55:16;14.60;99.90
42615;DHT22;28754;47.700;7.924;2023-09-19T03:58:03;14.60;99.90
42615;DHT22;28754;47.700;7.924;2023-09-19T04:00:50;14.60;99.90
42615;DHT22;28754;47.700;7.924;2023-09-19T04:03:48;14.60;99.90
42615;DHT22;28754;47.700;7.924;2023-09-19T04:06:35;14.80;99.90
42615;DHT22;28754;47.700;7.924;2023-09-19T04:09:22;14.80;99.90
42615;DHT22;28754;47.700;7.924;2023-09-19T04:12:08;14.60;99.90
42615;DHT22;28754;47.700;7.924;2023-09-19T04:14:55;14.70;99.90
42615;DHT22;28754;47.700;7.924;2023-09-19T04:17:42;14.70;99.90
42615;DHT22;28754;47.700;7.924;2023-09-19T04:20:29;14.70;99.90
42615;DHT22;28754;47.700;7.924;2023-09-19T04:23:16;14.70;99.90
42615;DHT22;28754;47.700;7.924;2023-09-19T04:26:06;14.60;99.90
42615;DHT22;28754;47.700;7.924;2023-09-19T04:28:53;14.60;99.90
42615;DHT22;28754;47.700;7.924;2023-09-19T04:31:40;14.50;99.90
42615;DHT22;28754;47.700;7.924;2023-09-19T04:34:27;14.50;99.90
42615;DHT22;28754;47.700;7.924;2023-09-19T04:37:13;14.50;99.90
42615;DHT22;28754;47.700;7.924;2023-09-19T04:40:01;14.60;99.90
42615;DHT22;28754;47.700;7.924;2023-09-19T04:42:54;14.60;99.90
42615;DHT22;28754;47.700;7.924;2023-09-19T04:45:44;14.50;99.90
42615;DHT22;28754;47.700;7.924;2023-09-19T04:48:31;14.50;99.90
42615;DHT22;28754;47.700;7.924;2023-09-19T04:51:17;14.50;99.90
42615;DHT22;28754;47.700;7.924;2023-09-19T04:54:05;14.40;99.90
42615;DHT22;28754;47.700;7.924;2023-09-19T04:56:53;14.50;99.90
42615;DHT22;28754;47.700;7.924;2023-09-19T04:59:39;14.60;99.90
42615;DHT22;28754;47.700;7.924;2023-09-19T05:02:29;14.60;99.90
42615;DHT22;28754;47.700;7.924;2023-09-19T05:05:17;14.60;99.90
42615;DHT22;28754;47.700;7.924;2023-09-19T05:08:05;14.60;99.90
42615;DHT22;28754;47.700;7.924;2023-09-19T05:10:52;14.70;99.90
42615;DHT22;28754;47.700;7.924;2023-09-19T05:13:38;14.70;99.90
42615;DHT22;28754;47.700;7.924;2023-09-19T05:16:25;14.50;99.90
42615;DHT22;28754;47.700;7.924;2023-09-19T05:19:12;14.40;99.90
42615;DHT22;28754;47.700;7.924;2023-09-19T05:21:58;14.30;99.90
42615;DHT22;28754;47.700;7.924;2023-09-19T05:24:45;14.50;99.90
42615;DHT22;28754;47.700;7.924;2023-09-19T05:27:34;14.40;99.90
42615;DHT22;28754;47.700;7.924;2023-09-19T05:30:21;14.40;99.90
42615;DHT22;28754;47.700;7.924;2023-09-19T05:33:09;14.50;99.90
42615;DHT22;28754;47.700;7.924;2023-09-19T05:35:55;14.40;99.90
42615;DHT22;28754;47.700;7.924;2023-09-19T05:38:42;14.40;99.90
42615;DHT22;28754;47.700;7.924;2023-09-19T05:41:30;14.40;99.90
42615;DHT22;28754;47.700;7.924;2023-09-19T05:44:17;14.40;99.90
42615;DHT22;28754;47.700;7.924;2023-09-19T05:47:04;14.40;99.90
42615;DHT22;28754;47.700;7.924;2023-09-19T05:49:50;14.40;99.90
42615;DHT22;28754;47.700;7.924;2023-09-19T05:52:38;14.40;99.90
42615;DHT22;28754;47.700;7.924;2023-09-19T05:55:25;14.40;99.90
42615;DHT22;28754;47.700;7.924;2023-09-19T05:58:12;14.40;99.90
42615;DHT22;28754;47.700;7.924;2023-09-19T06:01:03;14.60;99.90
42615;DHT22;28754;47.700;7.924;2023-09-19T06:03:50;14.60;99.90
42615;DHT22;28754;47.700;7.924;2023-09-19T06:06:37;14.60;99.90
42615;DHT22;28754;47.700;7.924;2023-09-19T06:09:26;14.50;99.90
42615;DHT22;28754;47.700;7.924;2023-09-19T06:12:14;14.50;99.90
42615;DHT22;28754;47.700;7.924;2023-09-19T06:15:04;14.50;99.90
42615;DHT22;28754;47.700;7.924;2023-09-19T06:17:54;14.50;99.90
42615;DHT22;28754;47.700;7.924;2023-09-19T06:20:42;14.60;99.90
42615;DHT22;28754;47.700;7.924;2023-09-19T06:23:30;14.60;99.90
42615;DHT22;28754;47.700;7.924;2023-09-19T06:26:17;14.60;99.90
42615;DHT22;28754;47.700;7.924;2023-09-19T06:29:04;14.60;99.90
42615;DHT22;28754;47.700;7.924;2023-09-19T06:31:53;14.60;99.90
42615;DHT22;28754;47.700;7.924;2023-09-19T06:34:40;14.60;99.90
42615;DHT22;28754;47.700;7.924;2023-09-19T06:37:29;14.50;99.90
42615;DHT22;28754;47.700;7.924;2023-09-19T06:40:16;14.60;99.90
42615;DHT22;28754;47.700;7.924;2023-09-19T06:43:05;14.60;99.90
42615;DHT22;28754;47.700;7.924;2023-09-19T06:45:51;14.60;99.90
42615;DHT22;28754;47.700;7.924;2023-09-19T06:48:41;14.60;99.90
42615;DHT22;28754;47.700;7.924;2023-09-19T06:51:30;14.50;99.90
42615;DHT22;28754;47.700;7.924;2023-09-19T06:54:17;14.50;99.90
42615;DHT22;28754;47.700;7.924;2023-09-19T06:57:04;14.60;99.90
42615;DHT22;28754;47.700;7.924;2023-09-19T06:59:52;14.60;99.90
42615;DHT22;28754;47.700;7.924;2023-09-19T07:02:38;14.70;99.90
42615;DHT22;28754;47.700;7.924;2023-09-19T07:05:27;14.90;99.90
42615;DHT22;28754;47.700;7.924;2023-09-19T07:08:14;15.00;99.90
42615;DHT22;28754;47.700;7.924;2023-09-19T07:11:01;15.20;99.90
42615;DHT22;28754;47.700;7.924;2023-09-19T07:13:48;15.00;99.90
42615;DHT22;28754;47.700;7.924;2023-09-19T07:16:34;14.90;99.90
42615;DHT22;28754;47.700;7.924;2023-09-19T07:19:22;14.90;99.90
42615;DHT22;28754;47.700;7.924;2023-09-19T07:22:08;14.80;99.90
42615;DHT22;28754;47.700;7.924;2023-09-19T07:24:55;14.90;99.90
42615;DHT22;28754;47.700;7.924;2023-09-19T07:27:42;14.90;99.90
42615;DHT22;28754;47.700;7.924;2023-09-19T07:30:29;14.80;99.90
42615;DHT22;28754;47.700;7.924;2023-09-19T07:33:16;14.90;99.90
42615;DHT22;28754;47.700;7.924;2023-09-19T07:36:03;15.10;99.90
42615;DHT22;28754;47.700;7.924;2023-09-19T07:38:50;15.30;99.90
42615;DHT22;28754;47.700;7.924;2023-09-19T07:41:36;15.50;99.90
42615;DHT22;28754;47.700;7.924;2023-09-19T07:44:23;15.60;99.90
42615;DHT22;28754;47.700;7.924;2023-09-19T07:47:12;15.50;99.90
42615;DHT22;28754;47.700;7.924;2023-09-19T07:50:00;15.60;99.90
42615;DHT22;28754;47.700;7.924;2023-09-19T07:52:50;15.80;99.90
42615;DHT22;28754;47.700;7.924;2023-09-19T07:55:39;15.70;99.90
42615;DHT22;28754;47.700;7.924;2023-09-19T07:58:27;15.60;99.90
42615;DHT22;28754;47.700;7.924;2023-09-19T08:01:14;15.70;99.90
42615;DHT22;28754;47.700;7.924;2023-09-19T08:04:02;15.80;99.90
42615;DHT22;28754;47.700;7.924;2023-09-19T08:06:52;15.70;99.90
42615;DHT22;28754;47.700;7.924;2023-09-19T08:09:42;15.80;99.90
42615;DHT22;28754;47.700;7.924;2023-09-19T08:12:32;15.80;99.90
42615;DHT22;28754;47.700;7.924;2023-09-19T08:15:20;15.80;99.90
42615;DHT22;28754;47.700;7.924;2023-09-19T08:18:09;15.70;99.90
42615;DHT22;28754;47.700;7.924;2023-09-19T08:20:58;15.90;99.90
42615;DHT22;28754;47.700;7.924;2023-09-19T08:23:46;15.70;99.90
42615;DHT22;28754;47.700;7.924;2023-09-19T08:26:33;15.90;99.90
42615;DHT22;28754;47.700;7.924;2023-09-19T08:29:20;15.80;99.90
42615;DHT22;28754;47.700;7.924;2023-09-19T08:32:07;15.70;99.90
42615;DHT22;28754;47.700;7.924;2023-09-19T08:34:53;15.60;99.90
42615;DHT22;28754;47.700;7.924;2023-09-19T08:37:40;15.70;99.90
42615;DHT22;28754;47.700;7.924;2023-09-19T08:40:28;15.70;99.90
42615;DHT22;28754;47.700;7.924;2023-09-19T08:43:21;15.80;99.90
42615;DHT22;28754;47.700;7.924;2023-09-19T08:46:14;16.00;99.90
42615;DHT22;28754;47.700;7.924;2023-09-19T08:49:06;16.50;99.90
42615;DHT22;28754;47.700;7.924;2023-09-19T08:52:06;17.40;99.90
42615;DHT22;28754;47.700;7.924;2023-09-19T08:55:02;17.20;99.90
42615;DHT22;28754;47.700;7.924;2023-09-19T08:58:01;17.50;99.90
42615;DHT22;28754;47.700;7.924;2023-09-19T09:00:51;18.20;99.90
42615;DHT22;28754;47.700;7.924;2023-09-19T09:03:40;18.80;99.90
42615;DHT22;28754;47.700;7.924;2023-09-19T09:06:34;19.30;99.90
42615;DHT22;28754;47.700;7.924;2023-09-19T09:09:22;18.70;99.90
42615;DHT22;28754;47.700;7.924;2023-09-19T09:12:11;18.40;99.90
42615;DHT22;28754;47.700;7.924;2023-09-19T09:15:00;18.10;99.90
42615;DHT22;28754;47.700;7.924;2023-09-19T09:17:47;17.40;99.90
42615;DHT22;28754;47.700;7.924;2023-09-19T09:20:39;17.40;99.90
42615;DHT22;28754;47.700;7.924;2023-09-19T09:23:27;17.40;99.90
42615;DHT22;28754;47.700;7.924;2023-09-19T09:26:41;17.50;99.90
42615;DHT22;28754;47.700;7.924;2023-09-19T09:29:43;17.30;99.90
42615;DHT22;28754;47.700;7.924;2023-09-19T09:32:35;17.30;99.90
42615;DHT22;28754;47.700;7.924;2023-09-19T09:35:23;17.30;99.90
42615;DHT22;28754;47.700;7.924;2023-09-19T09:38:10;17.20;99.90
42615;DHT22;28754;47.700;7.924;2023-09-19T09:40:57;17.90;99.90
42615;DHT22;28754;47.700;7.924;2023-09-19T09:43:48;18.20;99.90
42615;DHT22;28754;47.700;7.924;2023-09-19T09:46:35;18.60;99.90
42615;DHT22;28754;47.700;7.924;2023-09-19T09:49:41;18.90;99.90
42615;DHT22;28754;47.700;7.924;2023-09-19T09:52:46;19.50;99.90
42615;DHT22;28754;47.700;7.924;2023-09-19T09:56:01;19.70;99.90
42615;DHT22;28754;47.700;7.924;2023-09-19T09:58:55;20.10;99.90
42615;DHT22;28754;47.700;7.924;2023-09-19T10:01:48;20.00;99.90
42615;DHT22;28754;47.700;7.924;2023-09-19T10:04:35;20.20;99.90
42615;DHT22;28754;47.700;7.924;2023-09-19T10:07:31;20.10;99.90
42615;DHT22;28754;47.700;7.924;2023-09-19T10:10:36;20.80;99.90
42615;DHT22;28754;47.700;7.924;2023-09-19T10:13:30;20.70;99.90
42615;DHT22;28754;47.700;7.924;2023-09-19T10:16:19;19.00;99.90
42615;DHT22;28754;47.700;7.924;2023-09-19T10:19:07;18.70;99.90
42615;DHT22;28754;47.700;7.924;2023-09-19T10:21:56;19.00;99.90
42615;DHT22;28754;47.700;7.924;2023-09-19T10:24:46;18.90;99.90
42615;DHT22;28754;47.700;7.924;2023-09-19T10:27:39;18.40;99.90
42615;DHT22;28754;47.700;7.924;2023-09-19T10:30:31;18.40;99.90
42615;DHT22;28754;47.700;7.924;2023-09-19T10:33:35;17.90;99.90
42615;DHT22;28754;47.700;7.924;2023-09-19T10:36:24;18.00;99.90
42615;DHT22;28754;47.700;7.924;2023-09-19T10:39:15;18.00;99.90
42615;DHT22;28754;47.700;7.924;2023-09-19T10:42:06;18.40;99.90
42615;DHT22;28754;47.700;7.924;2023-09-19T10:45:00;18.10;99.90
42615;DHT22;28754;47.700;7.924;2023-09-19T10:47:51;18.20;99.90
42615;DHT22;28754;47.700;7.924;2023-09-19T10:50:50;18.30;99.90
42615;DHT22;28754;47.700;7.924;2023-09-19T10:53:56;18.30;99.90
42615;DHT22;28754;47.700;7.924;2023-09-19T10:56:49;19.10;99.90
42615;DHT22;28754;47.700;7.924;2023-09-19T10:59:39;19.80;99.90
42615;DHT22;28754;47.700;7.924;2023-09-19T11:03:21;19.90;99.90
42615;DHT22;28754;47.700;7.924;2023-09-19T11:06:19;20.00;99.90
42615;DHT22;28754;47.700;7.924;2023-09-19T11:09:06;19.10;99.90
42615;DHT22;28754;47.700;7.924;2023-09-19T11:11:56;19.10;99.90
42615;DHT22;28754;47.700;7.924;2023-09-19T11:14:43;19.40;99.90
42615;DHT22;28754;47.700;7.924;2023-09-19T11:17:35;20.40;99.90
42615;DHT22;28754;47.700;7.924;2023-09-19T11:20:31;20.20;99.90
42615;DHT22;28754;47.700;7.924;2023-09-19T11:23:27;20.00;99.90
42615;DHT22;28754;47.700;7.924;2023-09-19T11:26:44;19.60;99.90
42615;DHT22;28754;47.700;7.924;2023-09-19T11:29:33;19.70;99.90
42615;DHT22;28754;47.700;7.924;2023-09-19T11:36:10;20.90;99.90
42615;DHT22;28754;47.700;7.924;2023-09-19T11:39:25;21.10;99.90
42615;DHT22;28754;47.700;7.924;2023-09-19T11:42:42;21.10;99.90
42615;DHT22;28754;47.700;7.924;2023-09-19T11:48:32;21.60;99.90
42615;DHT22;28754;47.700;7.924;2023-09-19T11:51:23;22.30;99.90
42615;DHT22;28754;47.700;7.924;2023-09-19T11:54:13;22.10;99.90
42615;DHT22;28754;47.700;7.924;2023-09-19T11:57:04;22.40;99.90
42615;DHT22;28754;47.700;7.924;2023-09-19T11:59:53;22.10;99.90
42615;DHT22;28754;47.700;7.924;2023-09-19T12:02:43;21.90;99.90
42615;DHT22;28754;47.700;7.924;2023-09-19T12:05:33;22.50;99.90
42615;DHT22;28754;47.700;7.924;2023-09-19T12:08:21;22.30;99.90
42615;DHT22;28754;47.700;7.924;2023-09-19T12:11:11;22.20;99.90
42615;DHT22;28754;47.700;7.924;2023-09-19T12:14:02;21.70;99.90
42615;DHT22;28754;47.700;7.924;2023-09-19T12:16:57;21.60;99.90
42615;DHT22;28754;47.700;7.924;2023-09-19T12:19:56;21.90;99.90
42615;DHT22;28754;47.700;7.924;2023-09-19T12:22:44;22.30;99.90
42615;DHT22;28754;47.700;7.924;2023-09-19T12:25:42;22.40;99.90
42615;DHT22;28754;47.700;7.924;2023-09-19T12:28:41;22.60;99.90
42615;DHT22;28754;47.700;7.924;2023-09-19T12:31:31;22.60;99.90
42615;DHT22;28754;47.700;7.924;2023-09-19T12:34:28;21.50;99.90
42615;DHT22;28754;47.700;7.924;2023-09-19T12:37:16;21.00;99.90
42615;DHT22;28754;47.700;7.924;2023-09-19T12:40:09;20.30;99.90
42615;DHT22;28754;47.700;7.924;2023-09-19T12:43:04;19.60;99.90
42615;DHT22;28754;47.700;7.924;2023-09-19T12:45:51;20.00;99.90
42615;DHT22;28754;47.700;7.924;2023-09-19T12:48:39;20.10;99.90
42615;DHT22;28754;47.700;7.924;2023-09-19T12:51:35;20.60;99.90
42615;DHT22;28754;47.700;7.924;2023-09-19T12:54:22;21.70;99.90
42615;DHT22;28754;47.700;7.924;2023-09-19T12:57:23;21.40;99.90
42615;DHT22;28754;47.700;7.924;2023-09-19T13:00:12;21.80;99.90
42615;DHT22;28754;47.700;7.924;2023-09-19T13:03:24;22.50;99.90
42615;DHT22;28754;47.700;7.924;2023-09-19T13:06:12;22.50;99.90
42615;DHT22;28754;47.700;7.924;2023-09-19T13:09:10;21.90;99.90
42615;DHT22;28754;47.700;7.924;2023-09-19T13:11:57;21.90;99.90
42615;DHT22;28754;47.700;7.924;2023-09-19T13:14:45;21.90;99.90
42615;DHT22;28754;47.700;7.924;2023-09-19T13:17:45;21.40;99.90
42615;DHT22;28754;47.700;7.924;2023-09-19T13:20:35;21.10;99.90
42615;DHT22;28754;47.700;7.924;2023-09-19T13:23:28;21.60;99.90
42615;DHT22;28754;47.700;7.924;2023-09-19T13:26:15;22.30;99.90
42615;DHT22;28754;47.700;7.924;2023-09-19T13:29:02;22.50;99.90
42615;DHT22;28754;47.700;7.924;2023-09-19T13:31:49;22.50;99.90
42615;DHT22;28754;47.700;7.924;2023-09-19T13:34:39;23.00;99.90
42615;DHT22;28754;47.700;7.924;2023-09-19T13:37:25;25.20;99.90
42615;DHT22;28754;47.700;7.924;2023-09-19T13:40:14;27.80;99.90
42615;DHT22;28754;47.700;7.924;2023-09-19T13:43:01;28.60;99.90
42615;DHT22;28754;47.700;7.924;2023-09-19T13:45:48;29.90;99.90
42615;DHT22;28754;47.700;7.924;2023-09-19T13:48:36;30.60;99.90
42615;DHT22;28754;47.700;7.924;2023-09-19T13:51:29;28.00;99.90
42615;DHT22;28754;47.700;7.924;2023-09-19T13:54:19;28.70;99.90
42615;DHT22;28754;47.700;7.924;2023-09-19T13:57:10;30.00;99.90
42615;DHT22;28754;47.700;7.924;2023-09-19T14:00:47;29.30;99.90
42615;DHT22;28754;47.700;7.924;2023-09-19T14:04:16;26.70;99.90
42615;DHT22;28754;47.700;7.924;2023-09-19T14:11:24;25.00;99.90
42615;DHT22;28754;47.700;7.924;2023-09-19T14:17:42;27.20;99.90
42615;DHT22;28754;47.700;7.924;2023-09-19T14:20:40;25.80;99.90
42615;DHT22;28754;47.700;7.924;2023-09-19T14:23:53;23.30;99.90
42615;DHT22;28754;47.700;7.924;2023-09-19T14:26:49;24.40;99.90
42615;DHT22;28754;47.700;7.924;2023-09-19T14:29:48;23.90;99.90
42615;DHT22;28754;47.700;7.924;2023-09-19T14:32:35;24.40;99.90
42615;DHT22;28754;47.700;7.924;2023-09-19T14:35:51;24.60;99.90
42615;DHT22;28754;47.700;7.924;2023-09-19T14:39:05;24.60;99.90
42615;DHT22;28754;47.700;7.924;2023-09-19T14:41:52;24.60;99.90
42615;DHT22;28754;47.700;7.924;2023-09-19T14:44:40;24.30;99.90
42615;DHT22;28754;47.700;7.924;2023-09-19T14:47:27;24.30;99.90
42615;DHT22;28754;47.700;7.924;2023-09-19T14:50:14;24.60;99.90
42615;DHT22;28754;47.700;7.924;2023-09-19T14:53:02;24.60;99.90
42615;DHT22;28754;47.700;7.924;2023-09-19T14:55:49;24.40;99.90
42615;DHT22;28754;47.700;7.924;2023-09-19T14:58:38;24.30;99.90
42615;DHT22;28754;47.700;7.924;2023-09-19T15:01:25;24.40;99.90
42615;DHT22;28754;47.700;7.924;2023-09-19T15:04:14;24.50;99.90
42615;DHT22;28754;47.700;7.924;2023-09-19T15:07:01;24.20;99.90
42615;DHT22;28754;47.700;7.924;2023-09-19T15:09:49;24.10;99.90
42615;DHT22;28754;47.700;7.924;2023-09-19T15:12:38;24.50;99.90
42615;DHT22;28754;47.700;7.924;2023-09-19T15:15:26;24.10;99.90
42615;DHT22;28754;47.700;7.924;2023-09-19T15:18:16;24.20;99.90
42615;DHT22;28754;47.700;7.924;2023-09-19T15:21:06;23.80;99.90
42615;DHT22;28754;47.700;7.924;2023-09-19T15:23:59;23.40;99.90
42615;DHT22;28754;47.700;7.924;2023-09-19T15:26:45;23.30;99.90
42615;DHT22;28754;47.700;7.924;2023-09-19T15:29:32;23.10;99.90
42615;DHT22;28754;47.700;7.924;2023-09-19T15:32:19;23.10;99.90
42615;DHT22;28754;47.700;7.924;2023-09-19T15:35:07;23.00;99.90
42615;DHT22;28754;47.700;7.924;2023-09-19T15:37:57;23.40;99.90
42615;DHT22;28754;47.700;7.924;2023-09-19T15:40:47;23.30;99.90
42615;DHT22;28754;47.700;7.924;2023-09-19T15:43:33;23.00;99.90
42615;DHT22;28754;47.700;7.924;2023-09-19T15:46:21;22.90;99.90
42615;DHT22;28754;47.700;7.924;2023-09-19T15:49:08;22.80;99.90
42615;DHT22;28754;47.700;7.924;2023-09-19T15:51:55;22.80;99.90
42615;DHT22;28754;47.700;7.924;2023-09-19T15:54:42;22.90;99.90
42615;DHT22;28754;47.700;7.924;2023-09-19T15:57:31;22.90;99.90
42615;DHT22;28754;47.700;7.924;2023-09-19T16:00:18;22.50;99.90
42615;DHT22;28754;47.700;7.924;2023-09-19T16:03:05;22.40;99.90
42615;DHT22;28754;47.700;7.924;2023-09-19T16:05:52;22.30;99.90
42615;DHT22;28754;47.700;7.924;2023-09-19T16:08:43;22.00;99.90
42615;DHT22;28754;47.700;7.924;2023-09-19T16:11:34;22.00;99.90
42615;DHT22;28754;47.700;7.924;2023-09-19T16:14:24;21.60;99.90
42615;DHT22;28754;47.700;7.924;2023-09-19T16:17:11;21.30;99.90
42615;DHT22;28754;47.700;7.924;2023-09-19T16:20:06;20.70;99.90
42615;DHT22;28754;47.700;7.924;2023-09-19T16:22:59;20.50;99.90
42615;DHT22;28754;47.700;7.924;2023-09-19T16:26:06;20.50;99.90
42615;DHT22;28754;47.700;7.924;2023-09-19T16:28:56;20.60;99.90
42615;DHT22;28754;47.700;7.924;2023-09-19T16:31:46;20.60;99.90
42615;DHT22;28754;47.700;7.924;2023-09-19T16:34:33;20.70;99.90
42615;DHT22;28754;47.700;7.924;2023-09-19T16:37:20;20.70;99.90
42615;DHT22;28754;47.700;7.924;2023-09-19T16:40:14;20.50;99.90
42615;DHT22;28754;47.700;7.924;2023-09-19T16:43:01;20.20;99.90
42615;DHT22;28754;47.700;7.924;2023-09-19T16:46:02;20.10;99.90
42615;DHT22;28754;47.700;7.924;2023-09-19T16:49:01;20.20;99.90
42615;DHT22;28754;47.700;7.924;2023-09-19T16:51:53;20.10;99.90
42615;DHT22;28754;47.700;7.924;2023-09-19T16:54:39;20.20;99.90
42615;DHT22;28754;47.700;7.924;2023-09-19T16:57:29;20.10;99.90
42615;DHT22;28754;47.700;7.924;2023-09-19T17:00:21;19.90;99.90
42615;DHT22;28754;47.700;7.924;2023-09-19T17:03:11;19.80;99.90
42615;DHT22;28754;47.700;7.924;2023-09-19T17:06:11;19.70;99.90
42615;DHT22;28754;47.700;7.924;2023-09-19T17:09:17;19.70;99.90
42615;DHT22;28754;47.700;7.924;2023-09-19T17:12:10;19.80;99.90
42615;DHT22;28754;47.700;7.924;2023-09-19T17:15:05;19.70;99.90
42615;DHT22;28754;47.700;7.924;2023-09-19T17:17:53;19.70;99.90
42615;DHT22;28754;47.700;7.924;2023-09-19T17:20:41;19.40;99.90
42615;DHT22;28754;47.700;7.924;2023-09-19T17:23:28;19.40;99.90
42615;DHT22;28754;47.700;7.924;2023-09-19T17:26:17;19.10;99.90
42615;DHT22;28754;47.700;7.924;2023-09-19T17:29:07;19.10;99.90
42615;DHT22;28754;47.700;7.924;2023-09-19T17:31:56;18.90;99.90
42615;DHT22;28754;47.700;7.924;2023-09-19T17:34:47;18.70;99.90
42615;DHT22;28754;47.700;7.924;2023-09-19T17:37:35;18.80;99.90
42615;DHT22;28754;47.700;7.924;2023-09-19T17:40:27;18.80;99.90
42615;DHT22;28754;47.700;7.924;2023-09-19T17:43:14;18.70;99.90
42615;DHT22;28754;47.700;7.924;2023-09-19T17:46:08;18.70;99.90
42615;DHT22;28754;47.700;7.924;2023-09-19T17:49:00;18.20;99.90
42615;DHT22;28754;47.700;7.924;2023-09-19T17:51:46;18.20;99.90
42615;DHT22;28754;47.700;7.924;2023-09-19T17:54:33;18.20;99.90
42615;DHT22;28754;47.700;7.924;2023-09-19T17:57:21;18.20;99.90
42615;DHT22;28754;47.700;7.924;2023-09-19T18:00:09;18.00;99.90
42615;DHT22;28754;47.700;7.924;2023-09-19T18:03:03;18.00;99.90
42615;DHT22;28754;47.700;7.924;2023-09-19T18:05:51;17.80;99.90
42615;DHT22;28754;47.700;7.924;2023-09-19T18:08:40;18.00;99.90
42615;DHT22;28754;47.700;7.924;2023-09-19T18:11:30;17.80;99.90
42615;DHT22;28754;47.700;7.924;2023-09-19T18:14:17;17.90;99.90
42615;DHT22;28754;47.700;7.924;2023-09-19T18:17:04;18.00;99.90
42615;DHT22;28754;47.700;7.924;2023-09-19T18:19:51;18.00;99.90
42615;DHT22;28754;47.700;7.924;2023-09-19T18:22:38;18.20;99.90
42615;DHT22;28754;47.700;7.924;2023-09-19T18:25:25;18.10;99.90
42615;DHT22;28754;47.700;7.924;2023-09-19T18:28:12;18.00;99.90
42615;DHT22;28754;47.700;7.924;2023-09-19T18:31:07;17.90;99.90
42615;DHT22;28754;47.700;7.924;2023-09-19T18:33:54;17.70;99.90